»·PEaware :: UAL1488 KLAX-KCOS

UAL1488 :: KLAX-KCOS

FLIGHT INFORMATION

Flight Status: Arrived
Operator:
United Airlines
More flights by this operator :: More flights under this callsign
Pilot: Utku A. (15598)
Aircraft: BOEING 737-300
(B733)
More flights by this aircraft type
Origin: KLAX Los Angeles Intl
United States
Destination: KCOS City Of Colorado Springs Mun
United States
More flights between these airports :: More routes between these airports
Route: ORCKA3 LAS J146 DVC HBU DBRY3
File this flight plan on PilotEdge
Remarks:
Altitude:
(Current/Filed)
37,000ft
Speed:
(Current/Filed)
427kts
Departed: 26-Jul-18 04:32 PM
Arrived: 26-Jul-18 06:37 PM
Distance/Time
Traveled:
722nm/2:05
Distance/Time
To Go:
Arrived

Flight Plot

Page will automatically refresh every two minutes.

Flight plan parsing failed; only flown route is shown


Map Options




Map Legend


Flown Route
Filed Route
Departure Airport
Arrival Airport
Navaid (VOR, NDB)
Fix

Horizontal Profiles

Position Reports

Time Latitude Longitude Heading Altitude Ground
Speed
26-Jul-18 16:01 33.940696 -118.400063 81 110ft 0kts
26-Jul-18 16:02 33.940696 -118.400063 81 110ft 0kts
26-Jul-18 16:03 33.940696 -118.400063 81 110ft 0kts
26-Jul-18 16:04 33.940696 -118.400063 81 110ft 0kts
26-Jul-18 16:05 33.940696 -118.400063 81 110ft 0kts
26-Jul-18 16:06 33.940696 -118.400063 81 110ft 0kts
26-Jul-18 16:07 33.940696 -118.400063 81 110ft 0kts
26-Jul-18 16:08 33.940696 -118.400063 81 110ft 0kts
26-Jul-18 16:09 33.940696 -118.400063 81 110ft 0kts
26-Jul-18 16:10 33.940696 -118.400063 81 110ft 0kts
26-Jul-18 16:11 33.940696 -118.400063 81 110ft 0kts
26-Jul-18 16:12 33.940696 -118.400063 81 110ft 0kts
26-Jul-18 16:13 33.940696 -118.400063 81 110ft 0kts
26-Jul-18 16:14 33.940696 -118.400063 81 110ft 0kts
26-Jul-18 16:15 33.940696 -118.400063 81 110ft 0kts
26-Jul-18 16:16 33.940696 -118.400063 81 110ft 0kts
26-Jul-18 16:17 33.940696 -118.400063 81 110ft 0kts
26-Jul-18 16:18 33.940696 -118.400063 81 110ft 0kts
26-Jul-18 16:19 33.940696 -118.400063 81 110ft 0kts
26-Jul-18 16:20 33.940696 -118.400063 81 110ft 0kts
26-Jul-18 16:21 33.940677 -118.400362 103 110ft 2kts
26-Jul-18 16:22 33.941041 -118.400776 174 110ft 1kts
26-Jul-18 16:23 33.941090 -118.400780 173 110ft 0kts
26-Jul-18 16:24 33.941090 -118.400780 173 110ft 0kts
26-Jul-18 16:25 33.941090 -118.400780 173 110ft 0kts
26-Jul-18 16:26 33.941090 -118.400780 173 110ft 0kts
26-Jul-18 16:27 33.940270 -118.400664 173 110ft 6kts
26-Jul-18 16:28 33.938939 -118.398469 83 110ft 14kts
26-Jul-18 16:29 33.939533 -118.392371 83 110ft 22kts
26-Jul-18 16:30 33.940251 -118.385129 83 110ft 22kts
26-Jul-18 16:31 33.940665 -118.380812 82 110ft 0kts
26-Jul-18 16:32 33.940668 -118.380645 95 110ft 2kts
26-Jul-18 16:33 33.939591 -118.382043 263 110ft 41kts
26-Jul-18 16:34 33.935618 -118.420527 264 574ft 147kts
26-Jul-18 16:35 33.928661 -118.470620 242 2013ft 173kts
26-Jul-18 16:36 33.909486 -118.523907 247 4612ft 199kts
26-Jul-18 16:37 33.866694 -118.569149 160 6615ft 266kts
26-Jul-18 16:38 33.863198 -118.492741 31 9617ft 298kts
26-Jul-18 16:39 33.934680 -118.426820 53 11680ft 350kts
26-Jul-18 16:40 33.991137 -118.329792 56 14686ft 363kts
26-Jul-18 16:41 34.048983 -118.227845 56 17219ft 379kts
26-Jul-18 16:42 34.109044 -118.121843 56 19551ft 394kts
26-Jul-18 16:43 34.171613 -118.011159 56 21723ft 406kts
26-Jul-18 16:44 34.235688 -117.897288 56 23594ft 421kts
26-Jul-18 16:45 34.302381 -117.778384 56 25338ft 436kts
26-Jul-18 16:46 34.371858 -117.656304 55 26931ft 450kts
26-Jul-18 16:47 34.445997 -117.532296 55 28489ft 461kts
26-Jul-18 16:48 34.520697 -117.406851 55 30487ft 458kts
26-Jul-18 16:49 34.592918 -117.284936 56 32168ft 456kts
26-Jul-18 16:50 34.666193 -117.160953 56 33646ft 455kts
26-Jul-18 16:51 34.739766 -117.036090 56 34863ft 455kts
26-Jul-18 16:52 34.812760 -116.911779 56 35946ft 454kts
26-Jul-18 16:53 34.885921 -116.786739 56 36831ft 454kts
26-Jul-18 16:54 34.965509 -116.666784 47 37006ft 458kts
26-Jul-18 16:55 35.051933 -116.553896 48 36965ft 456kts
26-Jul-18 16:56 35.121799 -116.461764 48 36938ft 456kts
26-Jul-18 16:57 35.220966 -116.330646 49 36941ft 457kts
26-Jul-18 16:58 35.306685 -116.216418 49 36970ft 457kts
26-Jul-18 16:59 35.392470 -116.101987 49 36968ft 457kts
26-Jul-18 17:00 35.477788 -115.987792 49 36968ft 457kts
26-Jul-18 17:01 35.563211 -115.873064 49 36968ft 457kts
26-Jul-18 17:02 35.634305 -115.777195 49 36968ft 457kts
26-Jul-18 17:03 35.718267 -115.661022 49 36968ft 456kts
26-Jul-18 17:04 35.802419 -115.545132 49 36961ft 457kts
26-Jul-18 17:05 35.886695 -115.428668 49 36883ft 456kts
26-Jul-18 17:06 35.969002 -115.314405 50 36922ft 457kts
26-Jul-18 17:07 36.051678 -115.199195 50 36889ft 457kts
26-Jul-18 17:08 36.109288 -115.066731 74 36871ft 449kts
26-Jul-18 17:09 36.153097 -114.922583 72 36863ft 449kts
26-Jul-18 17:10 36.197116 -114.779002 72 36859ft 449kts
26-Jul-18 17:11 36.241247 -114.634754 72 36861ft 450kts
26-Jul-18 17:12 36.285331 -114.490231 72 36860ft 450kts
26-Jul-18 17:13 36.328829 -114.346900 73 36860ft 450kts
26-Jul-18 17:14 36.372336 -114.202539 73 36861ft 450kts
26-Jul-18 17:15 36.415705 -114.058163 73 36974ft 451kts
26-Jul-18 17:16 36.459308 -113.912284 73 36968ft 449kts
26-Jul-18 17:17 36.502584 -113.766723 73 36969ft 450kts
26-Jul-18 17:18 36.545557 -113.621431 73 36968ft 450kts
26-Jul-18 17:19 36.588585 -113.475172 71 36933ft 456kts
26-Jul-18 17:20 36.631331 -113.328355 73 37021ft 460kts
26-Jul-18 17:21 36.673936 -113.178294 72 37165ft 460kts
26-Jul-18 17:22 36.717158 -113.028872 72 37156ft 459kts
26-Jul-18 17:23 36.760159 -112.879319 72 37158ft 460kts
26-Jul-18 17:24 36.803121 -112.729089 72 37157ft 460kts
26-Jul-18 17:25 36.845619 -112.579651 72 37157ft 460kts
26-Jul-18 17:26 36.888054 -112.429247 72 37156ft 459kts
26-Jul-18 17:27 36.929207 -112.280143 72 37123ft 459kts
26-Jul-18 17:28 36.971377 -112.129485 72 37132ft 460kts
26-Jul-18 17:29 37.013023 -111.979941 72 37152ft 459kts
26-Jul-18 17:30 37.054028 -111.831876 69 37110ft 446kts
26-Jul-18 17:31 37.094520 -111.684876 69 37135ft 449kts
26-Jul-18 17:32 37.134713 -111.539239 69 37131ft 449kts
26-Jul-18 17:33 37.174904 -111.391721 69 37131ft 448kts
26-Jul-18 17:34 37.214318 -111.245892 69 37132ft 448kts
26-Jul-18 17:35 37.253486 -111.097063 70 37132ft 450kts
26-Jul-18 17:36 37.293214 -110.948547 69 37130ft 449kts
26-Jul-18 17:37 37.333328 -110.797820 69 37093ft 466kts
26-Jul-18 17:38 37.374742 -110.641149 69 37141ft 475kts
26-Jul-18 17:39 37.415854 -110.484707 69 37276ft 472kts
26-Jul-18 17:40 37.456189 -110.330285 69 37264ft 475kts
26-Jul-18 17:41 37.497011 -110.172735 69 37293ft 474kts
26-Jul-18 17:42 37.537742 -110.014883 69 37293ft 474kts
26-Jul-18 17:43 37.578534 -109.855834 70 37300ft 479kts
26-Jul-18 17:44 37.619127 -109.696564 70 37291ft 478kts
26-Jul-18 17:45 37.659439 -109.537401 70 37293ft 478kts
26-Jul-18 17:46 37.699540 -109.378085 69 37306ft 476kts
26-Jul-18 17:47 37.738781 -109.220792 70 37297ft 479kts
26-Jul-18 17:48 37.778508 -109.060855 70 37293ft 478kts
26-Jul-18 17:49 37.819217 -108.901538 65 37244ft 476kts
26-Jul-18 17:50 37.872192 -108.750082 62 37234ft 472kts
26-Jul-18 17:51 37.925339 -108.597899 62 37240ft 473kts
26-Jul-18 17:52 37.978141 -108.445865 62 37238ft 473kts
26-Jul-18 17:53 38.028786 -108.299147 63 37220ft 473kts
26-Jul-18 17:54 38.080927 -108.147311 63 37274ft 472kts
26-Jul-18 17:55 38.132110 -107.998487 62 37490ft 474kts
26-Jul-18 17:56 38.184213 -107.845469 62 37482ft 472kts
26-Jul-18 17:57 38.235827 -107.693025 62 37347ft 473kts
26-Jul-18 17:58 38.287250 -107.540304 62 37217ft 468kts
26-Jul-18 17:59 38.338523 -107.387288 62 37358ft 473kts
26-Jul-18 18:00 38.388512 -107.236867 61 37349ft 470kts
26-Jul-18 18:01 38.439368 -107.083498 63 37351ft 472kts
26-Jul-18 18:02 38.447251 -106.918041 94 36910ft 482kts
26-Jul-18 18:03 38.437656 -106.750124 91 34630ft 473kts
26-Jul-18 18:04 38.429144 -106.584234 91 32272ft 470kts
26-Jul-18 18:05 38.420329 -106.417850 91 30006ft 471kts
26-Jul-18 18:06 38.411514 -106.255703 91 27742ft 471kts
26-Jul-18 18:07 38.402229 -106.089345 91 25467ft 471kts
26-Jul-18 18:08 38.392896 -105.926186 91 24431ft 460kts
26-Jul-18 18:09 38.383353 -105.763496 91 23267ft 455kts
26-Jul-18 18:10 38.373979 -105.607307 91 20878ft 433kts
26-Jul-18 18:11 38.364846 -105.458242 92 18493ft 417kts
26-Jul-18 18:12 38.355965 -105.316134 94 16783ft 385kts
26-Jul-18 18:13 38.347505 -105.183286 94 16787ft 381kts
26-Jul-18 18:14 38.337817 -105.048703 96 16765ft 382kts
26-Jul-18 18:15 38.328310 -104.915857 96 15217ft 368kts
26-Jul-18 18:16 38.319907 -104.790938 97 13803ft 344kts
26-Jul-18 18:17 38.323744 -104.671240 56 13867ft 354kts
26-Jul-18 18:18 38.411618 -104.646017 343 13094ft 347kts
26-Jul-18 18:19 38.499360 -104.669813 348 11661ft 296kts
26-Jul-18 18:20 38.577412 -104.686237 358 10634ft 265kts
26-Jul-18 18:21 38.646958 -104.686144 358 8617ft 249kts
26-Jul-18 18:22 38.708604 -104.685038 355 7443ft 196kts
26-Jul-18 18:23 38.752999 -104.685903 357 6636ft 165kts
26-Jul-18 18:24 38.807694 -104.687242 356 8942ft 234kts
26-Jul-18 18:25 38.873894 -104.689331 357 8964ft 238kts
26-Jul-18 18:26 38.935444 -104.670462 58 9000ft 247kts
26-Jul-18 18:27 38.906318 -104.606002 166 8962ft 257kts
26-Jul-18 18:28 38.836929 -104.585163 174 9004ft 256kts
26-Jul-18 18:29 38.766105 -104.578749 177 9009ft 256kts
26-Jul-18 18:30 38.695330 -104.572668 177 9006ft 255kts
26-Jul-18 18:31 38.624700 -104.566636 177 9009ft 255kts
26-Jul-18 18:32 38.576674 -104.612000 266 8269ft 239kts
26-Jul-18 18:33 38.605239 -104.675489 336 8068ft 237kts
26-Jul-18 18:34 38.663182 -104.686329 358 8105ft 197kts
26-Jul-18 18:35 38.710695 -104.685898 358 7418ft 149kts
26-Jul-18 18:36 38.751540 -104.685752 356 6656ft 145kts
26-Jul-18 18:37 38.788965 -104.685813 359 6124ft 77kts
26-Jul-18 18:38 38.801499 -104.686292 324 6154ft 17kts
26-Jul-18 18:39 38.803126 -104.688466 269 6160ft 9kts
26-Jul-18 18:40 38.803113 -104.695340 269 6138ft 26kts
26-Jul-18 18:41 38.800257 -104.697561 241 6130ft 9kts
26-Jul-18 18:42 38.799241 -104.701348 256 6115ft 10kts
26-Jul-18 18:43 38.799226 -104.701831 269 6114ft 0kts
26-Jul-18 18:44 38.799226 -104.701831 269 6114ft 0kts
26-Jul-18 18:45 38.799226 -104.701831 269 6114ft 0kts

Navigation Log

Ident Type
Flight plan parsing failed, navigation log unavailable